createdAt,value
2023-03-13T00:00:59.987Z,20.67
2023-03-13T00:03:28.746Z,23.07
2023-03-13T00:05:57.921Z,19.97
2023-03-13T00:08:30.028Z,20.90
2023-03-13T00:10:58.053Z,22.93
2023-03-13T00:13:26.033Z,19.43
2023-03-13T00:16:01.397Z,19.87
2023-03-13T00:18:29.332Z,16.83
2023-03-13T00:21:00.872Z,22.37
2023-03-13T00:23:30.312Z,24.50
2023-03-13T00:25:59.373Z,23.40
2023-03-13T00:28:31.926Z,21.90
2023-03-13T00:31:04.729Z,22.23
2023-03-13T00:33:33.440Z,20.33
2023-03-13T00:36:01.825Z,22.23
2023-03-13T00:38:32.030Z,25.17
2023-03-13T00:41:01.256Z,32.33
2023-03-13T00:43:29.216Z,26.63
2023-03-13T00:45:57.250Z,27.80
2023-03-13T00:48:25.204Z,22.63
2023-03-13T00:50:53.129Z,28.33
2023-03-13T00:53:21.347Z,25.30
2023-03-13T00:55:55.059Z,17.10
2023-03-13T00:58:23.453Z,23.53
2023-03-13T01:00:51.527Z,25.20
2023-03-13T01:03:19.764Z,17.83
2023-03-13T01:05:56.808Z,21.03
2023-03-13T01:08:24.755Z,18.60
2023-03-13T01:10:59.403Z,23.17
2023-03-13T01:13:27.739Z,17.60
2023-03-13T01:15:55.779Z,17.07
2023-03-13T01:18:23.943Z,19.10
2023-03-13T01:20:51.841Z,22.30
2023-03-13T01:23:19.879Z,28.57
2023-03-13T01:25:47.760Z,20.70
2023-03-13T01:28:17.156Z,27.97
2023-03-13T01:30:45.058Z,25.20
2023-03-13T01:33:13.173Z,24.37
2023-03-13T01:35:41.091Z,19.90
2023-03-13T01:38:09.114Z,28.50
2023-03-13T01:40:41.531Z,19.20
2023-03-13T01:43:27.069Z,25.60
2023-03-13T01:46:09.767Z,24.53
2023-03-13T01:48:45.065Z,18.70
2023-03-13T01:51:15.173Z,19.80
2023-03-13T01:53:45.748Z,22.30
2023-03-13T01:56:18.795Z,34.50
2023-03-13T01:58:49.427Z,25.23
2023-03-13T02:01:17.947Z,24.70
2023-03-13T02:03:46.129Z,14.53
2023-03-13T02:06:14.064Z,22.83
2023-03-13T02:08:44.507Z,17.73
2023-03-13T02:11:21.129Z,26.30
2023-03-13T02:13:51.921Z,25.77
2023-03-13T02:16:20.508Z,20.83
2023-03-13T02:18:49.136Z,26.47
2023-03-13T02:21:24.975Z,23.80
2023-03-13T02:23:57.896Z,24.60
2023-03-13T02:26:27.179Z,21.03
2023-03-13T02:28:55.171Z,15.37
2023-03-13T02:31:23.241Z,19.60
2023-03-13T02:33:51.173Z,22.67
2023-03-13T02:36:19.657Z,20.57
2023-03-13T02:38:51.268Z,21.17
2023-03-13T02:41:20.405Z,26.33
2023-03-13T02:43:49.889Z,19.73
2023-03-13T02:46:19.800Z,22.27
2023-03-13T02:48:49.882Z,23.27
2023-03-13T02:51:21.709Z,19.73
2023-03-13T02:53:50.844Z,22.07
2023-03-13T02:56:20.612Z,21.43
2023-03-13T02:58:50.706Z,21.70
2023-03-13T03:01:18.831Z,20.67
2023-03-13T03:03:46.902Z,15.83
2023-03-13T03:06:14.824Z,21.00
2023-03-13T03:08:43.963Z,21.13
2023-03-13T03:11:12.273Z,20.17
2023-03-13T03:13:40.213Z,19.00
2023-03-13T03:16:11.136Z,22.03
2023-03-13T03:18:39.550Z,12.60
2023-03-13T03:21:08.126Z,20.93
2023-03-13T03:23:36.203Z,19.50
2023-03-13T03:26:06.501Z,23.40
2023-03-13T03:28:34.523Z,17.93
2023-03-13T03:31:05.537Z,13.23
2023-03-13T03:33:34.884Z,17.67
2023-03-13T03:36:03.492Z,19.80
2023-03-13T03:38:31.592Z,24.77
2023-03-13T03:40:59.528Z,15.67
2023-03-13T03:43:27.432Z,19.50
2023-03-13T03:45:55.496Z,19.73
2023-03-13T03:48:23.480Z,20.00
2023-03-13T03:50:52.939Z,13.50
2023-03-13T03:53:20.890Z,13.10
2023-03-13T03:55:48.876Z,25.93
2023-03-13T03:58:16.785Z,22.23
2023-03-13T04:00:45.279Z,20.20
2023-03-13T04:03:13.586Z,22.80
2023-03-13T04:05:42.281Z,12.73
2023-03-13T04:08:11.997Z,13.33
2023-03-13T04:10:39.898Z,15.57
2023-03-13T04:13:07.787Z,18.57
2023-03-13T04:15:35.775Z,13.93
2023-03-13T04:18:03.677Z,12.47
2023-03-13T04:20:31.630Z,17.53
2023-03-13T04:22:59.555Z,17.27
2023-03-13T04:25:28.823Z,15.10
2023-03-13T04:27:56.789Z,20.20
2023-03-13T04:30:24.803Z,13.20
2023-03-13T04:32:52.707Z,20.27
2023-03-13T04:35:20.670Z,12.50
2023-03-13T04:37:48.819Z,19.10
2023-03-13T04:40:16.849Z,18.63
2023-03-13T04:42:46.934Z,12.87
2023-03-13T04:45:14.914Z,19.90
2023-03-13T04:47:42.828Z,11.57
2023-03-13T04:50:11.738Z,15.90
2023-03-13T04:52:39.811Z,13.97
2023-03-13T04:55:08.228Z,13.93
2023-03-13T04:57:36.113Z,9.00
2023-03-13T05:00:08.097Z,11.90
2023-03-13T05:02:36.058Z,13.67
2023-03-13T05:05:04.073Z,13.27
2023-03-13T05:07:32.045Z,14.13
2023-03-13T05:09:59.937Z,13.73
2023-03-13T05:12:27.818Z,16.83
2023-03-13T05:14:55.752Z,13.93
2023-03-13T05:17:25.075Z,13.97
2023-03-13T05:19:52.952Z,13.53
2023-03-13T05:22:21.005Z,7.37
2023-03-13T05:24:48.921Z,11.63
2023-03-13T05:27:16.934Z,12.73
2023-03-13T05:29:44.809Z,10.67
2023-03-13T05:32:12.756Z,8.00
2023-03-13T05:34:42.019Z,7.30
2023-03-13T05:37:10.011Z,12.30
2023-03-13T05:39:37.985Z,10.10
2023-03-13T05:42:05.989Z,5.00
2023-03-13T05:44:33.902Z,9.10
2023-03-13T05:47:03.975Z,11.30
2023-03-13T05:49:32.069Z,10.70
2023-03-13T05:52:01.354Z,8.60
2023-03-13T05:54:29.237Z,5.87
2023-03-13T05:56:57.203Z,7.00
2023-03-13T05:59:25.184Z,8.73
2023-03-13T06:01:53.117Z,9.03
2023-03-13T06:04:21.160Z,6.33
2023-03-13T06:06:49.184Z,4.70
2023-03-13T06:09:18.607Z,6.30
2023-03-13T06:11:46.525Z,6.17
2023-03-13T06:14:14.472Z,5.23
2023-03-13T06:16:42.382Z,9.53
2023-03-13T06:19:10.282Z,4.07
2023-03-13T06:21:38.225Z,4.27
2023-03-13T06:24:06.800Z,3.23
2023-03-13T06:26:36.092Z,5.10
2023-03-13T06:29:04.013Z,4.57
2023-03-13T06:31:32.112Z,3.37
2023-03-13T06:34:00.130Z,5.17
2023-03-13T06:36:28.090Z,9.47
2023-03-13T06:38:56.049Z,6.13
2023-03-13T06:41:24.560Z,4.87
2023-03-13T06:43:56.964Z,7.33
2023-03-13T06:46:26.257Z,5.27
2023-03-13T06:48:54.551Z,4.43
2023-03-13T06:51:23.808Z,5.73
2023-03-13T06:53:52.449Z,3.47
2023-03-13T06:56:21.812Z,2.83
2023-03-13T06:58:50.389Z,4.43
2023-03-13T07:01:20.128Z,5.07
2023-03-13T07:03:48.717Z,3.10
2023-03-13T07:06:17.240Z,3.07
2023-03-13T07:08:45.757Z,4.17
2023-03-13T07:11:15.132Z,4.50
2023-03-13T07:13:43.341Z,5.57
2023-03-13T07:16:12.896Z,5.90
2023-03-13T07:18:44.657Z,4.57
2023-03-13T07:21:13.280Z,4.57
2023-03-13T07:23:41.704Z,5.53
2023-03-13T07:26:12.657Z,4.20
2023-03-13T07:28:40.750Z,5.57
2023-03-13T07:31:10.254Z,5.07
2023-03-13T07:33:38.243Z,4.50
2023-03-13T07:36:08.675Z,3.17
2023-03-13T07:38:36.647Z,4.30
2023-03-13T07:41:04.743Z,5.60
2023-03-13T07:43:32.651Z,3.93
2023-03-13T07:46:01.569Z,5.03
2023-03-13T07:48:31.266Z,5.67
2023-03-13T07:50:59.350Z,5.30
2023-03-13T07:53:29.731Z,4.70
2023-03-13T07:55:59.391Z,5.90
2023-03-13T07:58:28.811Z,4.97
2023-03-13T08:00:56.801Z,6.10
2023-03-13T08:03:25.639Z,6.40
2023-03-13T08:06:00.780Z,7.67
2023-03-13T08:08:30.428Z,5.70
2023-03-13T08:11:02.477Z,4.27
2023-03-13T08:13:30.469Z,4.83
2023-03-13T08:16:08.800Z,6.97
2023-03-13T08:18:37.957Z,4.83
2023-03-13T08:21:06.783Z,7.73
2023-03-13T08:23:36.608Z,5.43
2023-03-13T08:26:06.471Z,4.63
2023-03-13T08:28:34.431Z,5.13
2023-03-13T08:31:08.589Z,19.20
2023-03-13T08:33:36.586Z,7.73
2023-03-13T08:36:14.833Z,8.07
2023-03-13T08:38:46.037Z,10.90
2023-03-13T08:41:15.797Z,7.83
2023-03-13T08:43:43.836Z,5.27
2023-03-13T08:46:11.944Z,6.63
2023-03-13T08:48:39.924Z,7.33
2023-03-13T08:51:09.269Z,6.77
2023-03-13T08:53:38.209Z,11.00
2023-03-13T08:56:09.200Z,8.10
2023-03-13T08:58:38.356Z,6.40
2023-03-13T09:01:08.438Z,6.77
2023-03-13T09:03:38.249Z,10.27
2023-03-13T09:06:06.786Z,7.27
2023-03-13T09:08:35.631Z,7.73
2023-03-13T09:11:05.671Z,8.27
2023-03-13T09:13:36.379Z,10.97
2023-03-13T09:16:05.596Z,7.53
2023-03-13T09:18:34.137Z,11.83
2023-03-13T09:21:02.482Z,10.23
2023-03-13T09:23:30.420Z,9.67
2023-03-13T09:25:58.875Z,9.57
2023-03-13T09:28:27.605Z,9.23
2023-03-13T09:30:56.951Z,8.73
2023-03-13T09:33:25.381Z,10.07
2023-03-13T09:35:53.384Z,10.63
2023-03-13T09:38:22.578Z,8.47
2023-03-13T09:41:05.303Z,8.23
2023-03-13T09:43:41.985Z,8.17
2023-03-13T09:46:15.119Z,6.13
2023-03-13T09:48:45.906Z,7.30
2023-03-13T09:51:17.589Z,6.80
2023-03-13T09:53:49.376Z,10.20
2023-03-13T09:56:18.976Z,10.47
2023-03-13T09:58:53.370Z,6.60
2023-03-13T10:01:26.269Z,9.10
2023-03-13T10:04:02.292Z,10.60
2023-03-13T10:06:34.723Z,10.30
2023-03-13T10:09:02.802Z,7.23
2023-03-13T10:11:35.063Z,6.83
2023-03-13T10:14:06.491Z,5.47
2023-03-13T10:16:40.425Z,9.17
2023-03-13T10:19:13.526Z,10.10
2023-03-13T10:21:42.385Z,12.10
2023-03-13T10:24:16.352Z,8.93
2023-03-13T10:26:44.228Z,8.07
2023-03-13T10:29:22.040Z,9.70
2023-03-13T10:31:57.853Z,6.90
2023-03-13T10:34:26.218Z,7.73
2023-03-13T10:36:58.389Z,12.30
2023-03-13T10:39:28.110Z,7.10
2023-03-13T10:42:01.033Z,12.17
2023-03-13T10:44:34.370Z,7.90
2023-03-13T10:47:04.896Z,7.80
2023-03-13T10:49:33.864Z,7.73
2023-03-13T10:52:03.960Z,9.00
2023-03-13T10:54:35.303Z,6.13
2023-03-13T10:57:15.757Z,7.33
2023-03-13T10:59:46.121Z,9.33
2023-03-13T11:02:25.207Z,10.70
2023-03-13T11:04:54.487Z,5.33
2023-03-13T11:07:26.937Z,8.23
2023-03-13T11:10:03.319Z,6.30
2023-03-13T11:12:35.557Z,6.57
2023-03-13T11:15:07.901Z,5.23
2023-03-13T11:17:40.789Z,4.83
2023-03-13T11:20:15.916Z,3.90
2023-03-13T11:23:10.640Z,4.20
2023-03-13T11:25:42.996Z,5.00
2023-03-13T11:28:25.239Z,5.07
2023-03-13T11:31:09.001Z,4.90
2023-03-13T11:33:43.362Z,3.77
2023-03-13T11:36:17.963Z,5.97
2023-03-13T11:38:49.503Z,5.10
2023-03-13T11:41:38.796Z,3.60
2023-03-13T11:44:18.024Z,3.50
2023-03-13T11:46:51.498Z,3.67
2023-03-13T11:49:42.899Z,3.83
2023-03-13T11:52:18.468Z,4.87
2023-03-13T11:54:58.471Z,5.87
2023-03-13T11:57:29.948Z,4.97
2023-03-13T12:00:17.712Z,3.20
2023-03-13T12:02:49.847Z,2.90
2023-03-13T12:05:20.680Z,3.97
2023-03-13T12:07:54.151Z,3.73
2023-03-13T12:10:25.119Z,8.13
2023-03-13T12:12:59.127Z,1.97
2023-03-13T12:15:29.790Z,1.77
2023-03-13T12:18:02.368Z,4.67
2023-03-13T12:20:38.013Z,4.60
2023-03-13T12:23:17.626Z,3.13
2023-03-13T12:25:48.606Z,5.03
2023-03-13T12:28:25.116Z,2.40
2023-03-13T12:31:00.947Z,3.10
2023-03-13T12:33:32.601Z,1.97
2023-03-13T12:36:07.893Z,5.00
2023-03-13T12:38:39.084Z,2.70
2023-03-13T12:41:15.585Z,1.17
2023-03-13T12:43:49.669Z,3.03
2023-03-13T12:46:36.282Z,3.07
2023-03-13T12:49:31.001Z,4.20
2023-03-13T12:52:11.206Z,5.30
2023-03-13T12:54:53.916Z,2.63
2023-03-13T12:57:51.792Z,1.73
2023-03-13T13:00:22.277Z,2.17
2023-03-13T13:03:03.433Z,2.87
2023-03-13T13:05:31.363Z,4.30
2023-03-13T13:08:00.732Z,3.93
2023-03-13T13:10:29.317Z,3.53
2023-03-13T13:13:19.986Z,1.33
2023-03-13T13:15:48.827Z,2.93
2023-03-13T13:18:25.988Z,2.37
2023-03-13T13:21:22.003Z,1.63
2023-03-13T13:23:54.229Z,2.87
2023-03-13T13:26:49.682Z,3.07
2023-03-13T13:29:57.102Z,1.40
2023-03-13T13:32:40.093Z,2.17
2023-03-13T13:35:33.476Z,3.23
2023-03-13T13:38:28.428Z,4.03
2023-03-13T13:41:02.545Z,3.10
2023-03-13T13:43:32.905Z,2.83
2023-03-13T13:46:09.144Z,2.83
2023-03-13T13:48:39.741Z,2.63
2023-03-13T13:51:25.618Z,2.33
2023-03-13T13:53:59.796Z,3.27
2023-03-13T13:56:42.290Z,4.37
2023-03-13T13:59:33.712Z,3.20
2023-03-13T14:02:18.600Z,2.30
2023-03-13T14:04:51.430Z,2.20
2023-03-13T14:07:21.092Z,2.50
2023-03-13T14:09:54.647Z,2.67
2023-03-13T14:12:31.997Z,4.97
2023-03-13T14:15:20.315Z,1.43
2023-03-13T14:17:49.828Z,2.47
2023-03-13T14:20:21.471Z,2.33
2023-03-13T14:22:50.312Z,3.00
2023-03-13T14:25:18.454Z,4.37
2023-03-13T14:27:49.063Z,2.50
2023-03-13T14:30:18.852Z,3.33
2023-03-13T14:32:47.123Z,1.77
2023-03-13T14:35:17.663Z,2.93
2023-03-13T14:37:46.418Z,2.00
2023-03-13T14:40:32.290Z,2.63
2023-03-13T14:43:02.770Z,1.77
2023-03-13T14:45:31.855Z,2.00
2023-03-13T14:48:03.555Z,2.33
2023-03-13T14:50:31.569Z,1.70
2023-03-13T14:53:04.681Z,4.03
2023-03-13T14:55:35.100Z,1.93
2023-03-13T14:58:07.307Z,1.67
2023-03-13T15:00:38.751Z,2.20
2023-03-13T15:03:25.600Z,3.00
2023-03-13T15:06:17.360Z,1.43
2023-03-13T15:08:46.284Z,1.00
2023-03-13T15:11:22.856Z,1.77
2023-03-13T15:13:52.156Z,2.20
2023-03-13T15:16:21.836Z,2.20
2023-03-13T15:18:50.915Z,2.73
2023-03-13T15:21:23.500Z,2.20
2023-03-13T15:23:53.248Z,2.20
2023-03-13T15:26:22.372Z,2.40
2023-03-13T15:28:51.865Z,1.83
2023-03-13T15:31:21.434Z,2.20
2023-03-13T15:33:50.157Z,1.73
2023-03-13T15:36:18.157Z,2.07
2023-03-13T15:38:46.635Z,2.53
2023-03-13T15:41:14.537Z,1.20
2023-03-13T15:43:42.449Z,2.33
2023-03-13T15:46:14.415Z,1.77
2023-03-13T15:48:42.612Z,1.80
2023-03-13T15:51:12.638Z,1.63
2023-03-13T15:53:40.604Z,3.47
2023-03-13T15:56:14.826Z,10.33
2023-03-13T15:58:42.727Z,26.63
2023-03-13T16:01:13.333Z,33.53
2023-03-13T16:03:42.024Z,35.57
2023-03-13T16:06:16.441Z,4.43
2023-03-13T16:08:44.958Z,4.67
2023-03-13T16:11:17.523Z,2.30
2023-03-13T16:13:45.874Z,3.90
2023-03-13T16:16:21.570Z,1.70
2023-03-13T16:18:50.378Z,2.90
2023-03-13T16:21:21.280Z,2.23
2023-03-13T16:23:49.236Z,2.97
2023-03-13T16:26:18.785Z,4.13
2023-03-13T16:28:46.940Z,1.20
2023-03-13T16:31:20.649Z,2.83
2023-03-13T16:33:50.612Z,1.83
2023-03-13T16:36:21.984Z,1.33
2023-03-13T16:38:50.231Z,2.10
2023-03-13T16:41:20.188Z,1.47
2023-03-13T16:43:48.251Z,3.00
2023-03-13T16:46:19.479Z,3.10
2023-03-13T16:48:48.115Z,3.53
2023-03-13T16:51:18.590Z,4.43
2023-03-13T16:53:47.470Z,3.27
2023-03-13T16:56:23.587Z,3.30
2023-03-13T16:58:51.770Z,2.70
2023-03-13T17:01:21.304Z,1.77
2023-03-13T17:03:49.314Z,12.00
2023-03-13T17:06:18.837Z,4.10
2023-03-13T17:08:46.849Z,3.30
2023-03-13T17:11:17.952Z,2.47
2023-03-13T17:13:47.140Z,1.93
2023-03-13T17:16:17.352Z,2.70
2023-03-13T17:18:48.348Z,2.90
2023-03-13T17:21:18.434Z,3.07
2023-03-13T17:23:46.626Z,3.60
2023-03-13T17:26:17.018Z,1.37
2023-03-13T17:28:45.365Z,1.30
2023-03-13T17:31:13.581Z,5.07
2023-03-13T17:33:41.742Z,3.47
2023-03-13T17:36:20.180Z,2.27
2023-03-13T17:38:49.172Z,1.53
2023-03-13T17:41:19.368Z,1.60
2023-03-13T17:43:47.540Z,1.90
2023-03-13T17:46:18.307Z,3.13
2023-03-13T17:48:47.209Z,2.17
2023-03-13T17:51:19.166Z,1.73
2023-03-13T17:53:47.083Z,2.50
2023-03-13T17:56:17.234Z,3.10
2023-03-13T17:58:45.600Z,6.77
2023-03-13T18:01:15.279Z,3.20
2023-03-13T18:03:43.656Z,1.77
2023-03-13T18:06:22.799Z,2.47
2023-03-13T18:08:51.739Z,3.70
2023-03-13T18:11:20.192Z,1.63
2023-03-13T18:13:48.515Z,5.03
2023-03-13T18:16:18.893Z,2.57
2023-03-13T18:18:47.036Z,2.13
2023-03-13T18:21:14.966Z,4.47
2023-03-13T18:23:44.271Z,5.30
2023-03-13T18:26:23.025Z,6.33
2023-03-13T18:28:51.412Z,4.17
2023-03-13T18:31:19.565Z,4.93
2023-03-13T18:33:48.027Z,4.07
2023-03-13T18:36:18.224Z,2.53
2023-03-13T18:38:48.868Z,4.60
2023-03-13T18:41:17.419Z,6.90
2023-03-13T18:43:46.027Z,4.93
2023-03-13T18:46:17.001Z,2.93
2023-03-13T18:48:44.969Z,4.03
2023-03-13T18:51:15.174Z,2.70
2023-03-13T18:53:43.303Z,4.77
2023-03-13T18:56:18.514Z,6.50
2023-03-13T18:58:49.783Z,4.10
2023-03-13T19:01:20.161Z,6.60
2023-03-13T19:03:48.447Z,7.17
2023-03-13T19:06:22.384Z,3.90
2023-03-13T19:08:51.766Z,5.83
2023-03-13T19:11:23.370Z,4.10
2023-03-13T19:13:51.357Z,5.17
2023-03-13T19:16:20.427Z,4.57
2023-03-13T19:18:49.224Z,6.77
2023-03-13T19:21:19.469Z,4.20
2023-03-13T19:23:47.927Z,2.73
2023-03-13T19:26:26.824Z,4.07
2023-03-13T19:28:55.174Z,3.23
2023-03-13T19:31:24.029Z,4.67
2023-03-13T19:33:53.521Z,7.87
2023-03-13T19:36:23.141Z,5.37
2023-03-13T19:38:51.484Z,7.00
2023-03-13T19:41:20.849Z,4.20
2023-03-13T19:43:48.935Z,9.20
2023-03-13T19:46:25.962Z,6.07
2023-03-13T19:48:54.897Z,3.70
2023-03-13T19:51:23.426Z,5.60
2023-03-13T19:53:52.936Z,7.23
2023-03-13T19:56:23.606Z,5.00
2023-03-13T19:58:52.775Z,5.07
2023-03-13T20:01:20.893Z,6.10
2023-03-13T20:03:48.952Z,6.33
2023-03-13T20:06:18.953Z,7.90
2023-03-13T20:08:47.789Z,4.67
2023-03-13T20:11:16.455Z,5.97
2023-03-13T20:13:45.816Z,4.33
2023-03-13T20:16:14.121Z,11.73
2023-03-13T20:18:43.389Z,7.13
2023-03-13T20:21:11.922Z,7.13
2023-03-13T20:23:39.868Z,4.23
2023-03-13T20:26:09.804Z,9.00
2023-03-13T20:28:38.091Z,3.37
2023-03-13T20:31:08.325Z,3.63
2023-03-13T20:33:36.634Z,5.07
2023-03-13T20:36:06.795Z,5.50
2023-03-13T20:38:34.940Z,8.17
2023-03-13T20:41:03.297Z,5.83
2023-03-13T20:43:31.858Z,6.17
2023-03-13T20:46:00.487Z,8.60
2023-03-13T20:48:30.128Z,6.80
2023-03-13T20:51:00.889Z,7.20
2023-03-13T20:53:29.909Z,5.37
2023-03-13T20:55:57.851Z,9.10
2023-03-13T20:58:25.806Z,5.60
2023-03-13T21:00:53.710Z,6.30
2023-03-13T21:03:22.846Z,6.23
2023-03-13T21:05:52.199Z,5.60
2023-03-13T21:08:20.626Z,5.67
2023-03-13T21:10:48.533Z,4.83
2023-03-13T21:13:16.499Z,3.50
2023-03-13T21:15:44.398Z,6.63
2023-03-13T21:18:12.317Z,6.37
2023-03-13T21:20:40.301Z,8.03
2023-03-13T21:23:09.586Z,10.47
2023-03-13T21:25:37.462Z,7.60
2023-03-13T21:28:05.793Z,8.20
2023-03-13T21:30:33.695Z,11.73
2023-03-13T21:33:01.629Z,5.90
2023-03-13T21:35:29.681Z,6.83
2023-03-13T21:37:57.604Z,9.93
2023-03-13T21:40:28.681Z,4.83
2023-03-13T21:42:56.573Z,5.87
2023-03-13T21:45:24.469Z,3.37
2023-03-13T21:47:52.503Z,7.00
2023-03-13T21:52:53.668Z,5.40
2023-03-13T21:55:21.598Z,3.00
2023-03-13T21:57:50.954Z,3.10
2023-03-13T22:00:19.342Z,5.97
2023-03-13T22:02:47.269Z,8.27
2023-03-13T22:05:15.178Z,2.90
2023-03-13T22:07:43.104Z,4.37
2023-03-13T22:10:12.180Z,1.83
2023-03-13T22:12:40.203Z,2.47
2023-03-13T22:15:11.233Z,3.37
2023-03-13T22:17:39.191Z,3.50
2023-03-13T22:20:10.196Z,3.60
2023-03-13T22:22:38.103Z,2.03
2023-03-13T22:25:06.842Z,3.37
2023-03-13T22:27:35.050Z,3.17
2023-03-13T22:30:02.998Z,2.70
2023-03-13T22:32:32.332Z,3.63
2023-03-13T22:35:00.284Z,6.70
2023-03-13T22:37:28.220Z,3.13
2023-03-13T22:39:56.262Z,9.23
2023-03-13T22:42:24.838Z,3.63
2023-03-13T22:44:55.168Z,5.13
2023-03-13T22:47:23.565Z,6.87
2023-03-13T22:49:53.634Z,5.60
2023-03-13T22:52:22.206Z,5.73
2023-03-13T22:54:50.127Z,4.10
2023-03-13T22:57:18.003Z,7.93
2023-03-13T22:59:46.012Z,4.97
2023-03-13T23:02:13.945Z,8.17
2023-03-13T23:04:41.873Z,6.33
2023-03-13T23:07:11.196Z,8.10
2023-03-13T23:09:39.087Z,5.70
2023-03-13T23:12:07.469Z,4.77
2023-03-13T23:14:35.487Z,7.87
2023-03-13T23:17:03.542Z,2.57
2023-03-13T23:19:34.846Z,5.93
2023-03-13T23:22:05.326Z,4.13
2023-03-13T23:24:34.614Z,7.63
2023-03-13T23:27:02.525Z,4.80
2023-03-13T23:29:30.429Z,4.17
2023-03-13T23:31:58.384Z,5.50
2023-03-13T23:34:26.275Z,6.20
2023-03-13T23:36:54.473Z,4.40
2023-03-13T23:39:22.405Z,4.63
2023-03-13T23:41:51.692Z,4.27
2023-03-13T23:44:19.621Z,6.97
2023-03-13T23:46:47.594Z,3.00
2023-03-13T23:49:16.347Z,5.10
2023-03-13T23:51:44.248Z,6.33
2023-03-13T23:54:12.185Z,3.17
2023-03-13T23:56:40.158Z,7.53
2023-03-13T23:59:09.440Z,6.47
